Time;durP1;ratioP1;P1;durP2;ratioP2;P2;SDS_P1;SDS_P2;PMS_P1;PMS_P2;Temp;Humidity;BMP_temperature;BMP_pressure;BME280_temperature;BME280_humidity;BME280_pressure;Samples;Min_cycle;Max_cycle;Signal;HPM_P1;HPM_P2
2022/08/18 00:02:08;;;;;;;5.38;2.30;;;;;;;;;;5067193;28;20017;-77
2022/08/18 00:04:37;;;;;;;3.30;1.75;;;;;;;;;;5066593;28;20411;-77
2022/08/18 00:07:04;;;;;;;5.50;1.60;;;;;;;;;;5065040;28;20413;-77
2022/08/18 00:09:30;;;;;;;3.28;1.58;;;;;;;;;;5072436;28;20090;-77
2022/08/18 00:11:56;;;;;;;2.33;1.23;;;;;;;;;;5067926;28;20029;-77
2022/08/18 00:14:22;;;;;;;3.53;1.63;;;;;;;;;;5070964;28;20043;-77
2022/08/18 00:16:49;;;;;;;3.70;1.55;;;;;;;;;;5056726;28;20048;-77
2022/08/18 00:19:15;;;;;;;3.40;1.30;;;;;;;;;;5065000;28;20068;-77
2022/08/18 00:21:41;;;;;;;3.33;1.52;;;;;;;;;;5071849;28;20509;-77
2022/08/18 00:24:07;;;;;;;4.13;1.92;;;;;;;;;;5073452;28;20067;-77
2022/08/18 00:26:33;;;;;;;3.58;1.50;;;;;;;;;;5086876;28;20024;-77
2022/08/18 00:28:59;;;;;;;6.95;1.38;;;;;;;;;;5066675;28;20047;-77
2022/08/18 00:31:25;;;;;;;4.05;1.60;;;;;;;;;;5060996;28;20459;-78
2022/08/18 00:33:51;;;;;;;3.08;1.48;;;;;;;;;;5076657;28;20415;-78
2022/08/18 00:36:17;;;;;;;3.88;1.42;;;;;;;;;;5079825;28;20058;-77
2022/08/18 00:38:43;;;;;;;3.63;1.60;;;;;;;;;;5075005;28;20111;-77
2022/08/18 00:41:09;;;;;;;4.00;1.30;;;;;;;;;;5069973;28;20486;-77
2022/08/18 00:43:44;;;;;;;2.83;1.42;;;;;;;;;;5062474;28;20112;-77
2022/08/18 00:46:14;;;;;;;2.72;1.33;;;;;;;;;;5064746;28;20778;-77
2022/08/18 00:48:40;;;;;;;5.07;2.10;;;;;;;;;;5061145;28;20036;-77
2022/08/18 00:51:15;;;;;;;5.20;1.70;;;;;;;;;;5077357;28;20046;-77
2022/08/18 00:53:48;;;;;;;4.68;1.45;;;;;;;;;;5071724;28;20075;-78
2022/08/18 00:56:17;;;;;;;2.85;1.40;;;;;;;;;;5063126;28;20443;-77
2022/08/18 00:58:48;;;;;;;7.68;2.00;;;;;;;;;;5065426;28;20025;-77
2022/08/18 01:01:15;;;;;;;6.55;1.80;;;;;;;;;;5065145;28;20029;-77
2022/08/18 01:03:43;;;;;;;3.97;2.00;;;;;;;;;;5071777;28;20111;-77
2022/08/18 01:06:12;;;;;;;6.40;1.90;;;;;;;;;;5059195;28;20031;-78
2022/08/18 01:08:39;;;;;;;4.45;1.40;;;;;;;;;;5070186;28;20393;-78
2022/08/18 01:11:05;;;;;;;4.03;1.83;;;;;;;;;;5070671;28;20064;-77
2022/08/18 01:13:33;;;;;;;3.05;1.58;;;;;;;;;;5075464;28;20033;-78
2022/08/18 01:21:49;;;;;;;4.45;1.80;;;;;;;;;;5064702;28;20028;-78
2022/08/18 01:24:16;;;;;;;5.57;1.67;;;;;;;;;;5060675;28;20171;-77
2022/08/18 01:26:48;;;;;;;3.38;1.83;;;;;;;;;;5065648;28;20032;-78
2022/08/18 01:29:15;;;;;;;5.30;1.98;;;;;;;;;;5077692;28;20039;-77
2022/08/18 01:31:42;;;;;;;6.68;2.40;;;;;;;;;;5058424;28;20816;-78
2022/08/18 01:34:10;;;;;;;7.03;1.95;;;;;;;;;;5066999;28;20112;-77
2022/08/18 01:36:40;;;;;;;4.00;1.52;;;;;;;;;;5074912;28;20036;-78
2022/08/18 01:39:07;;;;;;;3.70;1.50;;;;;;;;;;5069745;28;20762;-78
2022/08/18 01:41:33;;;;;;;3.63;1.80;;;;;;;;;;5076203;28;20102;-78
2022/08/18 01:44:00;;;;;;;3.90;1.38;;;;;;;;;;5070056;28;20814;-78
2022/08/18 01:46:27;;;;;;;5.75;2.20;;;;;;;;;;5062820;28;20032;-78
2022/08/18 01:48:53;;;;;;;4.57;2.03;;;;;;;;;;5069715;28;20028;-77
2022/08/18 01:51:20;;;;;;;4.13;1.60;;;;;;;;;;5059715;28;20024;-78
2022/08/18 01:53:47;;;;;;;3.60;1.50;;;;;;;;;;5067921;28;20116;-77
2022/08/18 01:56:16;;;;;;;4.65;2.70;;;;;;;;;;5053396;28;20025;-77
2022/08/18 01:58:42;;;;;;;5.93;2.03;;;;;;;;;;5060878;28;20071;-78
2022/08/18 02:01:11;;;;;;;5.00;2.30;;;;;;;;;;5063902;28;20063;-77
2022/08/18 02:03:39;;;;;;;4.10;2.30;;;;;;;;;;5070062;28;20028;-77
2022/08/18 02:06:08;;;;;;;5.60;2.63;;;;;;;;;;5067374;28;20043;-77
2022/08/18 02:08:34;;;;;;;4.40;2.53;;;;;;;;;;5073101;28;20032;-77
2022/08/18 02:11:02;;;;;;;6.95;3.45;;;;;;;;;;5070224;28;20051;-78
2022/08/18 02:13:28;;;;;;;7.60;3.10;;;;;;;;;;5062587;28;20025;-78
2022/08/18 02:15:54;;;;;;;6.10;2.65;;;;;;;;;;5065846;28;20032;-78
2022/08/18 02:18:22;;;;;;;4.03;2.40;;;;;;;;;;5068379;28;20031;-78
2022/08/18 02:20:48;;;;;;;5.65;2.70;;;;;;;;;;5058389;28;20049;-78
2022/08/18 02:23:14;;;;;;;7.88;2.90;;;;;;;;;;5066372;28;20033;-78
2022/08/18 02:25:43;;;;;;;6.75;2.90;;;;;;;;;;5058562;28;20103;-78
2022/08/18 02:28:09;;;;;;;5.90;2.45;;;;;;;;;;5069660;28;20034;-77
2022/08/18 02:30:38;;;;;;;5.47;2.47;;;;;;;;;;5068899;28;20044;-77
2022/08/18 02:33:05;;;;;;;5.38;2.17;;;;;;;;;;5070772;28;20466;-78
2022/08/18 02:35:32;;;;;;;5.15;2.50;;;;;;;;;;5076577;28;20070;-78
2022/08/18 02:37:59;;;;;;;9.27;2.50;;;;;;;;;;5071490;28;20183;-78
2022/08/18 02:40:25;;;;;;;4.68;1.80;;;;;;;;;;5074319;28;20196;-78
2022/08/18 02:42:51;;;;;;;5.22;2.22;;;;;;;;;;5072018;28;20028;-77
2022/08/18 02:45:18;;;;;;;4.03;1.98;;;;;;;;;;5062016;28;20047;-78
2022/08/18 02:47:44;;;;;;;5.45;1.48;;;;;;;;;;5072046;28;20055;-78
2022/08/18 02:50:11;;;;;;;3.55;1.35;;;;;;;;;;5074263;28;20067;-77
2022/08/18 02:52:37;;;;;;;3.67;1.70;;;;;;;;;;5071891;28;20028;-77
2022/08/18 02:55:04;;;;;;;3.83;1.83;;;;;;;;;;5062888;28;20480;-78
2022/08/18 02:57:30;;;;;;;5.45;1.90;;;;;;;;;;5071601;28;20040;-78
2022/08/18 02:59:56;;;;;;;4.82;2.03;;;;;;;;;;5073239;28;20389;-77
2022/08/18 03:02:23;;;;;;;5.30;2.13;;;;;;;;;;5072613;28;20028;-77
2022/08/18 03:04:50;;;;;;;4.95;2.40;;;;;;;;;;5072691;28;20479;-78
2022/08/18 03:07:16;;;;;;;4.20;2.38;;;;;;;;;;5061329;28;20035;-77
2022/08/18 03:09:42;;;;;;;4.80;2.45;;;;;;;;;;5067653;28;20032;-78
2022/08/18 03:12:09;;;;;;;4.95;2.88;;;;;;;;;;5072523;28;20063;-77
2022/08/18 03:14:36;;;;;;;5.78;2.30;;;;;;;;;;5068445;28;20037;-78
2022/08/18 03:17:04;;;;;;;5.65;2.28;;;;;;;;;;5058839;28;20032;-78
2022/08/18 03:19:31;;;;;;;6.03;2.55;;;;;;;;;;5071228;28;20477;-77
2022/08/18 03:21:58;;;;;;;5.47;2.80;;;;;;;;;;5072151;28;20040;-77
2022/08/18 03:24:25;;;;;;;5.45;2.55;;;;;;;;;;5069453;28;20120;-78
2022/08/18 03:26:52;;;;;;;4.00;2.70;;;;;;;;;;5067881;28;20044;-77
2022/08/18 03:29:18;;;;;;;6.68;2.55;;;;;;;;;;5072000;28;20461;-78
2022/08/18 03:31:44;;;;;;;4.90;2.60;;;;;;;;;;5072202;28;20131;-78
2022/08/18 03:34:11;;;;;;;4.63;2.05;;;;;;;;;;5074705;28;20040;-77
2022/08/18 03:36:37;;;;;;;3.28;2.00;;;;;;;;;;5072211;28;20028;-77
2022/08/18 03:39:09;;;;;;;4.97;1.88;;;;;;;;;;5065119;28;20049;-78
2022/08/18 03:41:36;;;;;;;6.60;2.40;;;;;;;;;;5064121;28;20479;-78
2022/08/18 03:44:02;;;;;;;3.60;2.30;;;;;;;;;;5070032;28;20823;-78
2022/08/18 03:46:28;;;;;;;4.50;2.40;;;;;;;;;;5068250;28;20078;-77
2022/08/18 03:48:56;;;;;;;5.05;2.22;;;;;;;;;;5079066;28;20032;-79
2022/08/18 03:51:25;;;;;;;6.57;2.30;;;;;;;;;;5054850;28;20052;-78
2022/08/18 03:53:52;;;;;;;5.93;2.35;;;;;;;;;;5067277;28;20024;-77
2022/08/18 03:56:20;;;;;;;5.97;2.60;;;;;;;;;;5065934;28;20046;-78
2022/08/18 03:58:47;;;;;;;4.72;2.47;;;;;;;;;;5073204;28;20637;-77
2022/08/18 04:01:14;;;;;;;6.38;2.67;;;;;;;;;;5066531;28;20025;-78
2022/08/18 04:03:44;;;;;;;3.53;2.28;;;;;;;;;;5076046;28;20452;-78
2022/08/18 04:06:17;;;;;;;3.42;2.50;;;;;;;;;;5067117;28;20087;-78
2022/08/18 04:08:43;;;;;;;6.97;2.40;;;;;;;;;;5068732;28;20568;-78
2022/08/18 04:11:09;;;;;;;5.80;2.50;;;;;;;;;;5064124;28;20036;-77
2022/08/18 04:13:36;;;;;;;4.25;2.75;;;;;;;;;;5081316;28;20066;-77
2022/08/18 04:16:02;;;;;;;5.65;2.53;;;;;;;;;;5069027;28;20020;-77
2022/08/18 04:18:30;;;;;;;6.05;2.80;;;;;;;;;;5069788;28;20064;-78
2022/08/18 04:20:57;;;;;;;5.63;2.70;;;;;;;;;;5081209;28;20075;-78
2022/08/18 04:23:23;;;;;;;4.93;2.15;;;;;;;;;;5070900;28;20032;-78
2022/08/18 04:26:00;;;;;;;4.05;2.38;;;;;;;;;;5062719;28;20098;-77
2022/08/18 04:28:26;;;;;;;6.55;2.80;;;;;;;;;;5069882;28;20028;-78
2022/08/18 04:30:52;;;;;;;7.47;3.45;;;;;;;;;;5071072;28;20033;-78
2022/08/18 04:33:18;;;;;;;7.60;3.53;;;;;;;;;;5075384;28;20040;-78
2022/08/18 04:35:45;;;;;;;5.18;2.40;;;;;;;;;;5073510;28;20129;-78
2022/08/18 04:38:11;;;;;;;4.97;2.92;;;;;;;;;;5051416;28;20035;-78
2022/08/18 04:40:37;;;;;;;6.03;3.15;;;;;;;;;;5070290;28;20119;-78
2022/08/18 04:43:03;;;;;;;4.22;3.13;;;;;;;;;;5070559;28;20025;-78
2022/08/18 04:45:29;;;;;;;6.85;3.20;;;;;;;;;;5066996;28;20044;-78
2022/08/18 04:47:56;;;;;;;5.68;3.17;;;;;;;;;;5069643;28;20036;-78
2022/08/18 04:50:23;;;;;;;6.40;3.53;;;;;;;;;;5056860;28;20381;-78
2022/08/18 04:55:34;;;;;;;4.07;3.10;;;;;;;;;;5060040;28;20051;-78
2022/08/18 04:58:00;;;;;;;5.55;2.60;;;;;;;;;;5070061;28;20143;-78
2022/08/18 05:00:26;;;;;;;4.10;2.20;;;;;;;;;;5072060;28;20029;-78
2022/08/18 05:02:53;;;;;;;3.72;2.08;;;;;;;;;;5063979;28;20040;-77
2022/08/18 05:05:19;;;;;;;5.20;2.45;;;;;;;;;;5066435;28;20016;-78
2022/08/18 05:07:46;;;;;;;4.43;2.75;;;;;;;;;;5057303;28;20109;-78
2022/08/18 05:10:12;;;;;;;5.03;2.45;;;;;;;;;;5070702;28;20386;-78
2022/08/18 05:12:41;;;;;;;5.45;2.80;;;;;;;;;;5066556;28;20036;-77
2022/08/18 05:15:07;;;;;;;5.40;3.67;;;;;;;;;;5069284;28;20028;-78
2022/08/18 05:17:37;;;;;;;5.40;3.60;;;;;;;;;;5066852;28;20159;-77
2022/08/18 05:20:03;;;;;;;6.10;3.05;;;;;;;;;;5069931;28;20040;-77
2022/08/18 05:22:29;;;;;;;4.22;3.28;;;;;;;;;;5072479;28;20032;-78
2022/08/18 05:24:56;;;;;;;10.13;4.25;;;;;;;;;;5069524;28;20131;-78
2022/08/18 05:27:22;;;;;;;6.97;4.70;;;;;;;;;;5069352;28;20033;-77
2022/08/18 05:29:48;;;;;;;6.00;3.38;;;;;;;;;;5070775;28;20035;-77
2022/08/18 05:32:14;;;;;;;5.38;3.70;;;;;;;;;;5070160;28;20790;-77
2022/08/18 05:34:40;;;;;;;6.97;3.33;;;;;;;;;;5070205;28;20111;-77
2022/08/18 05:37:13;;;;;;;5.25;3.50;;;;;;;;;;5072917;28;20028;-77
2022/08/18 05:39:45;;;;;;;4.80;3.47;;;;;;;;;;5069862;28;20024;-77
2022/08/18 05:42:16;;;;;;;6.07;3.95;;;;;;;;;;5068231;28;20037;-77
2022/08/18 05:44:44;;;;;;;5.50;3.40;;;;;;;;;;5074551;28;20028;-77
2022/08/18 05:47:15;;;;;;;7.50;2.92;;;;;;;;;;5068690;28;20047;-77
2022/08/18 05:49:43;;;;;;;3.30;2.25;;;;;;;;;;5069136;28;20028;-77
2022/08/18 05:52:13;;;;;;;7.07;2.28;;;;;;;;;;5061730;28;20103;-78
2022/08/18 05:57:28;;;;;;;4.47;1.95;;;;;;;;;;5068776;28;20429;-78
2022/08/18 05:59:54;;;;;;;4.70;2.25;;;;;;;;;;5074245;28;20042;-78
2022/08/18 06:02:39;;;;;;;4.75;1.98;;;;;;;;;;5060503;28;20358;-77
2022/08/18 06:05:12;;;;;;;6.90;2.83;;;;;;;;;;5069981;28;20033;-77
2022/08/18 06:07:48;;;;;;;6.68;2.72;;;;;;;;;;5068374;28;20119;-77
2022/08/18 06:10:14;;;;;;;4.97;1.85;;;;;;;;;;5069495;28;20059;-78
2022/08/18 06:12:45;;;;;;;8.93;2.47;;;;;;;;;;5068504;28;20036;-78
2022/08/18 06:15:26;;;;;;;6.35;1.88;;;;;;;;;;5059910;28;20112;-77
2022/08/18 06:18:08;;;;;;;6.20;2.08;;;;;;;;;;5065136;28;20039;-77
2022/08/18 06:20:49;;;;;;;7.40;2.30;;;;;;;;;;5068757;28;20041;-77
2022/08/18 06:23:25;;;;;;;5.45;2.03;;;;;;;;;;5072024;28;20036;-77
2022/08/18 06:26:00;;;;;;;3.53;1.90;;;;;;;;;;5063351;28;20111;-77
2022/08/18 06:28:29;;;;;;;3.75;1.88;;;;;;;;;;5064609;28;20033;-78
2022/08/18 06:30:55;;;;;;;4.57;1.92;;;;;;;;;;5053169;28;20037;-78
2022/08/18 06:33:39;;;;;;;3.53;1.67;;;;;;;;;;5043476;28;20139;-78
2022/08/18 06:36:11;;;;;;;3.50;2.25;;;;;;;;;;5058038;28;20039;-78
2022/08/18 06:38:50;;;;;;;4.10;2.53;;;;;;;;;;5064171;28;20028;-78
2022/08/18 06:41:22;;;;;;;6.03;2.15;;;;;;;;;;5064180;28;20044;-78
2022/08/18 06:44:00;;;;;;;3.85;1.92;;;;;;;;;;5065853;28;20052;-78
2022/08/18 06:46:40;;;;;;;6.50;1.85;;;;;;;;;;5063823;28;20033;-78
2022/08/18 06:49:08;;;;;;;3.63;1.95;;;;;;;;;;5063170;28;20035;-78
2022/08/18 06:51:34;;;;;;;3.28;2.05;;;;;;;;;;5060571;28;20824;-78
2022/08/18 06:54:03;;;;;;;6.47;2.00;;;;;;;;;;5069100;28;20151;-78
2022/08/18 06:56:38;;;;;;;4.03;1.42;;;;;;;;;;5052839;28;20037;-78
2022/08/18 06:59:15;;;;;;;2.65;1.20;;;;;;;;;;5065975;28;20028;-77
2022/08/18 07:01:42;;;;;;;3.10;1.30;;;;;;;;;;5066590;28;20044;-78
2022/08/18 07:04:08;;;;;;;4.47;1.50;;;;;;;;;;5074196;28;20034;-78
2022/08/18 07:06:34;;;;;;;4.35;1.23;;;;;;;;;;5039560;28;20037;-78
2022/08/18 07:09:23;;;;;;;2.83;1.30;;;;;;;;;;5067246;28;20458;-78
2022/08/18 07:12:00;;;;;;;3.45;1.30;;;;;;;;;;5061635;28;20033;-78
2022/08/18 07:14:27;;;;;;;3.97;1.55;;;;;;;;;;5074523;28;20043;-78
2022/08/18 07:17:22;;;;;;;2.17;1.10;;;;;;;;;;5066922;28;20027;-78
2022/08/18 07:19:55;;;;;;;2.95;1.15;;;;;;;;;;5064899;28;20048;-78
2022/08/18 07:22:21;;;;;;;3.90;1.35;;;;;;;;;;5066587;28;20041;-78
2022/08/18 07:24:50;;;;;;;3.20;1.02;;;;;;;;;;5067266;28;20034;-78
2022/08/18 07:27:16;;;;;;;2.30;1.13;;;;;;;;;;5061043;28;20079;-78
2022/08/18 07:30:02;;;;;;;3.00;1.20;;;;;;;;;;5064440;28;20115;-78
2022/08/18 07:32:33;;;;;;;2.00;1.10;;;;;;;;;;5066732;28;20091;-78
2022/08/18 07:35:02;;;;;;;4.13;1.25;;;;;;;;;;5067743;28;20040;-78
2022/08/18 07:37:34;;;;;;;2.40;1.30;;;;;;;;;;5069846;28;20036;-78
2022/08/18 07:40:00;;;;;;;;;;;;;;;;;;5064101;28;20032;-78
2022/08/18 07:42:38;;;;;;;2.45;1.10;;;;;;;;;;5078662;28;19927;-78
2022/08/18 07:45:11;;;;;;;4.07;1.15;;;;;;;;;;5058055;28;20122;-78
2022/08/18 07:47:45;;;;;;;3.33;1.08;;;;;;;;;;5067364;28;20068;-78
2022/08/18 07:50:11;;;;;;;1.80;0.88;;;;;;;;;;5071467;28;20032;-78
2022/08/18 07:52:45;;;;;;;2.47;1.27;;;;;;;;;;5052623;28;20201;-78
2022/08/18 07:55:26;;;;;;;2.75;1.10;;;;;;;;;;5045935;28;20676;-78
2022/08/18 07:58:11;;;;;;;4.00;1.23;;;;;;;;;;5059902;28;20390;-78
2022/08/18 08:00:40;;;;;;;2.67;1.20;;;;;;;;;;5066364;28;20041;-78
2022/08/18 08:03:18;;;;;;;3.20;1.33;;;;;;;;;;5066693;28;20523;-78
2022/08/18 08:06:05;;;;;;;3.58;1.10;;;;;;;;;;5066697;28;20041;-78
2022/08/18 08:08:39;;;;;;;5.05;1.10;;;;;;;;;;5064570;28;20036;-78
2022/08/18 08:11:11;;;;;;;3.20;1.13;;;;;;;;;;5072901;28;20040;-78
2022/08/18 08:13:43;;;;;;;2.75;1.13;;;;;;;;;;5069121;28;20153;-78
2022/08/18 08:16:28;;;;;;;2.50;0.80;;;;;;;;;;5063768;28;20396;-78
2022/08/18 08:19:03;;;;;;;3.47;1.02;;;;;;;;;;5065691;28;20048;-78
2022/08/18 08:21:32;;;;;;;3.28;0.90;;;;;;;;;;5066075;28;20052;-78
2022/08/18 08:23:58;;;;;;;2.55;1.00;;;;;;;;;;5065852;28;20107;-78
2022/08/18 08:26:36;;;;;;;2.33;1.00;;;;;;;;;;5064457;28;20732;-78
2022/08/18 08:29:03;;;;;;;1.50;0.90;;;;;;;;;;5066366;28;20068;-78
2022/08/18 08:31:41;;;;;;;2.03;1.00;;;;;;;;;;5062733;28;20043;-78
2022/08/18 08:34:26;;;;;;;3.63;1.00;;;;;;;;;;5068626;28;20029;-78
2022/08/18 08:36:57;;;;;;;4.43;1.05;;;;;;;;;;5066371;28;20028;-78
2022/08/18 08:39:41;;;;;;;5.18;1.17;;;;;;;;;;5064289;28;20033;-78
2022/08/18 08:42:11;;;;;;;3.13;1.27;;;;;;;;;;5061703;28;20486;-78
2022/08/18 08:44:42;;;;;;;5.25;1.20;;;;;;;;;;5062406;28;20044;-78
2022/08/18 08:47:14;;;;;;;4.53;1.17;;;;;;;;;;5054708;28;20385;-78
2022/08/18 08:49:56;;;;;;;3.42;1.25;;;;;;;;;;5066800;28;20033;-78
2022/08/18 08:52:27;;;;;;;5.53;1.30;;;;;;;;;;5064420;28;20115;-78
2022/08/18 08:54:58;;;;;;;3.53;1.40;;;;;;;;;;5065005;28;20044;-78
2022/08/18 08:57:31;;;;;;;5.68;1.30;;;;;;;;;;5068088;28;20024;-78
2022/08/18 08:59:58;;;;;;;3.65;1.35;;;;;;;;;;5068802;28;20047;-78
2022/08/18 09:02:27;;;;;;;3.95;1.30;;;;;;;;;;5066467;28;20108;-78
2022/08/18 09:05:08;;;;;;;2.38;1.10;;;;;;;;;;5067003;28;20032;-78
2022/08/18 09:07:40;;;;;;;2.92;1.50;;;;;;;;;;5076178;28;20029;-78
2022/08/18 09:10:19;;;;;;;3.03;1.40;;;;;;;;;;5060040;28;20051;-78
2022/08/18 09:13:02;;;;;;;3.53;1.80;;;;;;;;;;5068850;28;20448;-78
2022/08/18 09:15:28;;;;;;;4.03;1.38;;;;;;;;;;5069059;28;20125;-78
2022/08/18 09:18:21;;;;;;;3.92;1.27;;;;;;;;;;5068753;28;20644;-78
2022/08/18 09:20:51;;;;;;;6.25;1.48;;;;;;;;;;5064397;28;20402;-78
2022/08/18 09:23:20;;;;;;;3.90;1.50;;;;;;;;;;5063258;28;20029;-78
2022/08/18 09:25:54;;;;;;;3.78;1.40;;;;;;;;;;5063977;28;20037;-78
2022/08/18 09:28:22;;;;;;;2.80;1.30;;;;;;;;;;5063424;28;20025;-78
2022/08/18 09:31:00;;;;;;;2.05;1.00;;;;;;;;;;5068887;28;20032;-78
2022/08/18 09:33:43;;;;;;;2.28;1.20;;;;;;;;;;5062414;28;20025;-78
2022/08/18 09:36:16;;;;;;;3.25;1.20;;;;;;;;;;5055653;28;20029;-78
2022/08/18 09:41:51;;;;;;;3.72;1.13;;;;;;;;;;5065887;28;20074;-78
2022/08/18 09:44:55;;;;;;;1.83;0.90;;;;;;;;;;5067736;28;20036;-78
2022/08/18 09:47:24;;;;;;;4.15;1.30;;;;;;;;;;5065684;28;20028;-78
2022/08/18 09:49:52;;;;;;;1.83;1.15;;;;;;;;;;5066656;28;20068;-78
2022/08/18 09:52:21;;;;;;;2.67;1.15;;;;;;;;;;5069516;28;20036;-77
2022/08/18 09:54:53;;;;;;;5.18;1.33;;;;;;;;;;5068281;28;20044;-78
2022/08/18 09:57:21;;;;;;;6.38;1.83;;;;;;;;;;5065512;28;20036;-78
2022/08/18 09:59:47;;;;;;;5.70;1.63;;;;;;;;;;5058935;28;20469;-78
2022/08/18 10:02:34;;;;;;;2.80;1.60;;;;;;;;;;5063143;28;20036;-78
2022/08/18 10:05:15;;;;;;;5.43;1.88;;;;;;;;;;5067227;28;20036;-78
2022/08/18 10:07:47;;;;;;;3.10;1.70;;;;;;;;;;5063441;28;20024;-78
2022/08/18 10:10:38;;;;;;;3.03;1.50;;;;;;;;;;5068311;28;20044;-78
2022/08/18 10:13:14;;;;;;;3.88;1.90;;;;;;;;;;5067614;28;20052;-78
2022/08/18 10:15:40;;;;;;;4.70;1.90;;;;;;;;;;5075252;28;20119;-78
2022/08/18 10:18:18;;;;;;;5.53;1.90;;;;;;;;;;5065340;28;20572;-78
2022/08/18 10:21:00;;;;;;;4.70;1.95;;;;;;;;;;5050395;28;20060;-78
2022/08/18 10:23:38;;;;;;;3.40;1.80;;;;;;;;;;5058468;28;20029;-78
2022/08/18 10:26:04;;;;;;;3.45;1.50;;;;;;;;;;5066908;28;20605;-78
2022/08/18 10:28:49;;;;;;;3.95;1.73;;;;;;;;;;5067451;28;20082;-78
2022/08/18 10:31:15;;;;;;;4.00;1.92;;;;;;;;;;5060372;28;20037;-78
2022/08/18 10:34:00;;;;;;;2.60;1.27;;;;;;;;;;5065605;28;20036;-78
2022/08/18 10:36:32;;;;;;;3.53;1.77;;;;;;;;;;5063256;28;20043;-78
2022/08/18 10:38:59;;;;;;;3.78;1.35;;;;;;;;;;5064957;28;20071;-78
2022/08/18 10:41:29;;;;;;;2.58;1.40;;;;;;;;;;5072156;28;20029;-78
2022/08/18 10:43:56;;;;;;;2.92;1.40;;;;;;;;;;5066937;28;20055;-78
2022/08/18 10:46:23;;;;;;;3.20;1.73;;;;;;;;;;5064655;28;20032;-78
2022/08/18 10:49:00;;;;;;;3.92;1.88;;;;;;;;;;5066029;28;20035;-78
2022/08/18 10:51:32;;;;;;;4.70;2.05;;;;;;;;;;5059461;28;20448;-78
2022/08/18 10:54:07;;;;;;;3.55;2.15;;;;;;;;;;5067013;28;20082;-78
2022/08/18 10:56:33;;;;;;;4.15;2.30;;;;;;;;;;5062033;28;20064;-78
2022/08/18 10:59:07;;;;;;;4.47;2.05;;;;;;;;;;5063403;28;20075;-78
2022/08/18 11:02:00;;;;;;;2.90;1.88;;;;;;;;;;5066016;28;20063;-78
2022/08/18 11:04:29;;;;;;;3.30;2.20;;;;;;;;;;5036619;28;20053;-78
2022/08/18 11:07:02;;;;;;;5.30;2.17;;;;;;;;;;5055761;28;20033;-78
2022/08/18 11:09:28;;;;;;;5.47;2.10;;;;;;;;;;5065210;28;20048;-78
2022/08/18 11:11:57;;;;;;;6.35;2.10;;;;;;;;;;5054868;28;20039;-78
2022/08/18 11:14:41;;;;;;;4.68;2.13;;;;;;;;;;5070596;28;20072;-78
2022/08/18 11:17:19;;;;;;;3.65;2.40;;;;;;;;;;5071984;28;20471;-78
2022/08/18 11:19:45;;;;;;;4.65;2.50;;;;;;;;;;5069665;28;20482;-78
2022/08/18 11:22:29;;;;;;;4.68;2.65;;;;;;;;;;5065217;28;20509;-78
2022/08/18 11:24:55;;;;;;;3.35;2.17;;;;;;;;;;5071204;28;20119;-78
2022/08/18 11:27:26;;;;;;;5.25;2.10;;;;;;;;;;5057899;28;20122;-78
2022/08/18 11:29:52;;;;;;;4.00;2.35;;;;;;;;;;5060789;28;20488;-78
2022/08/18 11:32:27;;;;;;;5.65;2.70;;;;;;;;;;5061753;28;20024;-78
2022/08/18 11:35:10;;;;;;;6.70;2.05;;;;;;;;;;5063878;28;20068;-78
2022/08/18 11:37:53;;;;;;;7.57;2.42;;;;;;;;;;5047872;28;20059;-78
2022/08/18 11:40:20;;;;;;;6.47;2.85;;;;;;;;;;5071849;28;20124;-78
2022/08/18 11:42:55;;;;;;;6.55;2.50;;;;;;;;;;5071069;28;20112;-78
2022/08/18 11:45:23;;;;;;;4.78;2.22;;;;;;;;;;5068629;28;20681;-78
2022/08/18 11:48:07;;;;;;;2.92;1.75;;;;;;;;;;5057786;28;20377;-78
2022/08/18 11:50:33;;;;;;;6.90;2.95;;;;;;;;;;5069134;28;20037;-78
2022/08/18 11:53:13;;;;;;;3.65;1.75;;;;;;;;;;5066643;28;20050;-78
2022/08/18 11:55:39;;;;;;;3.83;1.92;;;;;;;;;;5059311;28;20545;-78
2022/08/18 11:58:05;;;;;;;5.10;2.25;;;;;;;;;;5066630;28;20107;-78
2022/08/18 12:00:37;;;;;;;8.32;2.30;;;;;;;;;;5060996;28;20040;-78
2022/08/18 12:03:04;;;;;;;4.15;2.30;;;;;;;;;;5070497;28;20035;-78
2022/08/18 12:05:40;;;;;;;5.50;2.10;;;;;;;;;;5064942;28;20393;-78
2022/08/18 12:08:16;;;;;;;2.97;2.00;;;;;;;;;;5058345;28;20087;-79
2022/08/18 12:10:42;;;;;;;3.63;2.28;;;;;;;;;;5068407;28;20044;-78
2022/08/18 12:13:07;;;;;;;4.20;2.10;;;;;;;;;;5067726;28;20028;-78
2022/08/18 12:15:34;;;;;;;5.05;1.80;;;;;;;;;;5066419;28;20036;-78
2022/08/18 12:18:00;;;;;;;4.15;1.90;;;;;;;;;;5070509;28;20070;-78
2022/08/18 12:20:27;;;;;;;3.10;1.70;;;;;;;;;;5060655;28;20064;-78
2022/08/18 12:22:55;;;;;;;3.10;2.05;;;;;;;;;;5060885;28;20025;-78
2022/08/18 12:25:21;;;;;;;4.50;1.85;;;;;;;;;;5065938;28;20478;-78
2022/08/18 12:27:47;;;;;;;3.85;2.10;;;;;;;;;;5070911;28;20028;-78
2022/08/18 12:30:13;;;;;;;3.53;1.80;;;;;;;;;;5070301;28;20036;-78
2022/08/18 12:32:39;;;;;;;3.88;1.92;;;;;;;;;;5062727;28;20036;-78
2022/08/18 12:35:07;;;;;;;3.35;1.83;;;;;;;;;;5069535;28;20040;-78
2022/08/18 12:37:33;;;;;;;2.58;1.80;;;;;;;;;;5069900;28;20359;-78
2022/08/18 12:40:00;;;;;;;3.15;2.00;;;;;;;;;;5068941;28;20044;-78
2022/08/18 12:42:26;;;;;;;3.55;1.90;;;;;;;;;;5063963;28;20028;-78
2022/08/18 12:44:53;;;;;;;5.10;2.00;;;;;;;;;;5062328;28;20037;-78
2022/08/18 12:47:21;;;;;;;5.28;2.17;;;;;;;;;;5069980;28;20024;-78
2022/08/18 12:49:47;;;;;;;3.90;2.20;;;;;;;;;;5070889;28;20120;-78
2022/08/18 12:52:13;;;;;;;4.72;2.03;;;;;;;;;;5064389;28;20032;-78
2022/08/18 12:54:42;;;;;;;4.70;2.58;;;;;;;;;;5058159;28;20041;-78
2022/08/18 12:57:11;;;;;;;5.32;2.70;;;;;;;;;;5072367;28;20024;-78
2022/08/18 12:59:37;;;;;;;3.88;2.30;;;;;;;;;;5069688;28;20567;-78
2022/08/18 13:02:04;;;;;;;3.50;2.15;;;;;;;;;;5065037;28;20056;-78
2022/08/18 13:04:30;;;;;;;5.22;2.28;;;;;;;;;;5063924;28;20124;-78
2022/08/18 13:06:57;;;;;;;7.97;1.92;;;;;;;;;;5066358;28;20115;-78
2022/08/18 13:09:23;;;;;;;3.33;2.30;;;;;;;;;;5041238;28;20037;-78
2022/08/18 13:11:49;;;;;;;3.35;2.00;;;;;;;;;;5061937;28;20062;-78
2022/08/18 13:14:15;;;;;;;3.20;1.80;;;;;;;;;;5060392;28;20028;-78
2022/08/18 13:16:44;;;;;;;3.10;2.00;;;;;;;;;;5073051;28;20035;-78
2022/08/18 13:19:11;;;;;;;4.85;2.10;;;;;;;;;;5065817;28;20107;-78
2022/08/18 13:21:37;;;;;;;5.13;2.30;;;;;;;;;;5061522;28;20111;-78
2022/08/18 13:24:04;;;;;;;3.40;2.20;;;;;;;;;;5064063;28;20484;-78
2022/08/18 13:26:34;;;;;;;4.88;2.10;;;;;;;;;;5067732;28;20058;-78
2022/08/18 13:29:00;;;;;;;4.17;2.30;;;;;;;;;;5066365;28;20056;-78
2022/08/18 13:31:27;;;;;;;7.07;2.20;;;;;;;;;;5067168;28;20044;-78
2022/08/18 13:33:55;;;;;;;7.78;2.28;;;;;;;;;;5069216;28;20115;-78
2022/08/18 13:36:21;;;;;;;4.85;2.47;;;;;;;;;;5066927;28;20028;-78
2022/08/18 13:38:47;;;;;;;3.78;1.98;;;;;;;;;;5056751;28;20046;-78
2022/08/18 13:41:13;;;;;;;3.15;2.00;;;;;;;;;;5067881;28;20119;-78
2022/08/18 13:43:41;;;;;;;4.05;2.00;;;;;;;;;;5070998;28;20862;-78
2022/08/18 13:46:08;;;;;;;4.28;2.15;;;;;;;;;;5066506;28;20024;-78
2022/08/18 13:48:35;;;;;;;4.50;2.25;;;;;;;;;;5063910;28;20056;-78
2022/08/18 13:51:01;;;;;;;4.63;2.10;;;;;;;;;;5063075;28;20032;-78
2022/08/18 13:53:28;;;;;;;5.38;2.28;;;;;;;;;;5068381;28;20054;-78
2022/08/18 13:55:58;;;;;;;4.82;2.30;;;;;;;;;;5062672;28;20107;-78
2022/08/18 13:58:24;;;;;;;4.85;2.17;;;;;;;;;;5056545;28;20108;-78
2022/08/18 14:00:52;;;;;;;4.82;2.35;;;;;;;;;;5067701;28;20036;-78
2022/08/18 14:03:19;;;;;;;5.75;2.33;;;;;;;;;;5061562;28;20028;-78
2022/08/18 14:05:45;;;;;;;3.53;2.42;;;;;;;;;;5068337;28;20066;-77
2022/08/18 14:08:11;;;;;;;4.72;2.30;;;;;;;;;;5069403;28;20029;-78
2022/08/18 14:10:37;;;;;;;4.20;2.47;;;;;;;;;;5059454;28;20051;-78
2022/08/18 14:13:05;;;;;;;4.00;2.55;;;;;;;;;;5066983;28;20024;-78
2022/08/18 14:15:35;;;;;;;4.72;2.65;;;;;;;;;;5069354;28;20638;-78
2022/08/18 14:18:01;;;;;;;6.28;2.35;;;;;;;;;;5062581;28;20016;-78
2022/08/18 14:28:41;;;;;;;3.20;2.40;;;;;;;;;;5057787;28;20061;-78
2022/08/18 14:31:07;;;;;;;6.05;2.47;;;;;;;;;;5067339;28;20037;-78
2022/08/18 14:33:34;;;;;;;3.92;2.22;;;;;;;;;;5064469;28;20029;-78
2022/08/18 14:36:00;;;;;;;3.00;1.98;;;;;;;;;;5064432;28;20043;-78
2022/08/18 14:38:26;;;;;;;3.85;2.10;;;;;;;;;;5067996;28;20036;-78
2022/08/18 14:40:52;;;;;;;4.72;2.50;;;;;;;;;;5090870;22;20063;-78
2022/08/18 14:43:20;;;;;;;4.30;2.28;;;;;;;;;;5083764;28;20054;-78
2022/08/18 14:45:47;;;;;;;6.57;2.20;;;;;;;;;;5092011;28;20028;-78
2022/08/18 14:48:14;;;;;;;3.28;2.17;;;;;;;;;;5082216;28;20052;-78
2022/08/18 14:50:42;;;;;;;5.47;2.60;;;;;;;;;;5092467;28;20036;-78
2022/08/18 14:53:08;;;;;;;4.20;2.45;;;;;;;;;;5085257;28;20020;-78
2022/08/18 14:55:36;;;;;;;3.97;2.00;;;;;;;;;;5088242;28;20036;-78
2022/08/18 14:58:02;;;;;;;6.88;2.38;;;;;;;;;;5082676;28;20024;-78
2022/08/18 15:00:28;;;;;;;4.10;2.03;;;;;;;;;;5088700;28;20074;-78
2022/08/18 15:02:56;;;;;;;3.70;2.20;;;;;;;;;;5089445;28;20024;-78
2022/08/18 15:05:22;;;;;;;3.42;2.55;;;;;;;;;;5083190;28;20070;-78
2022/08/18 15:07:48;;;;;;;3.58;2.10;;;;;;;;;;5088859;28;20024;-78
2022/08/18 15:10:15;;;;;;;4.40;2.30;;;;;;;;;;5089339;28;20036;-78
2022/08/18 15:12:42;;;;;;;3.85;2.10;;;;;;;;;;5081785;28;20731;-78
2022/08/18 15:15:11;;;;;;;4.82;2.05;;;;;;;;;;5081185;28;20888;-78
2022/08/18 15:17:37;;;;;;;4.85;2.47;;;;;;;;;;5086374;28;20031;-79
2022/08/18 15:20:07;;;;;;;5.88;2.20;;;;;;;;;;5081572;28;20952;-78
2022/08/18 15:25:43;;;;;;;3.83;2.10;;;;;;;;;;5080208;28;20477;-78